createdAt,value
2022-12-11T00:02:25.290Z,0.83
2022-12-11T00:05:27.290Z,0.81
2022-12-11T00:08:29.200Z,0.76
2022-12-11T00:11:34.726Z,0.77
2022-12-11T00:14:37.677Z,0.72
2022-12-11T00:17:39.934Z,0.78
2022-12-11T00:20:42.039Z,0.79
2022-12-11T00:23:44.051Z,0.72
2022-12-11T00:26:46.234Z,0.65
2022-12-11T00:29:49.664Z,0.70
2022-12-11T00:32:54.804Z,0.63
2022-12-11T00:35:56.706Z,0.57
2022-12-11T00:38:58.980Z,0.55
2022-12-11T00:42:01.065Z,0.50
2022-12-11T00:45:03.299Z,0.49
2022-12-11T00:48:06.236Z,0.45
2022-12-11T00:51:08.982Z,0.44
2022-12-11T00:54:11.028Z,0.45
2022-12-11T00:57:12.998Z,0.41
2022-12-11T01:00:15.024Z,0.38
2022-12-11T01:03:17.723Z,0.36
2022-12-11T01:06:22.147Z,0.32
2022-12-11T01:09:43.051Z,0.31
2022-12-11T01:12:44.835Z,0.34
2022-12-11T01:15:47.190Z,0.27
2022-12-11T01:18:49.253Z,0.33
2022-12-11T01:21:50.973Z,0.32
2022-12-11T01:24:53.253Z,0.30
2022-12-11T01:27:56.261Z,0.29
2022-12-11T01:30:58.498Z,0.25
2022-12-11T01:34:00.968Z,0.26
2022-12-11T01:37:03.047Z,0.25
2022-12-11T01:40:06.592Z,0.26
2022-12-11T01:43:11.491Z,0.22
2022-12-11T01:46:13.674Z,0.18
2022-12-11T01:49:22.482Z,0.17
2022-12-11T01:52:24.535Z,0.15
2022-12-11T01:55:26.886Z,0.10
2022-12-11T01:58:39.270Z,0.07
2022-12-11T02:01:44.993Z,0.09
2022-12-11T02:04:50.084Z,0.08
2022-12-11T02:07:56.172Z,-0.02
2022-12-11T02:11:12.093Z,0.06
2022-12-11T02:14:47.325Z,0.02
2022-12-11T02:18:08.916Z,0.04
2022-12-11T02:21:21.195Z,-0.02
2022-12-11T02:24:51.101Z,0.01
2022-12-11T02:28:14.937Z,0.04
2022-12-11T02:31:26.820Z,-0.02
2022-12-11T02:34:31.498Z,-0.08
2022-12-11T02:37:35.931Z,-0.03
2022-12-11T02:40:40.398Z,-0.06
2022-12-11T02:43:45.850Z,-0.07
2022-12-11T02:46:47.970Z,-0.04
2022-12-11T02:49:50.871Z,-0.06
2022-12-11T02:52:54.481Z,-0.07
2022-12-11T02:56:10.267Z,-0.06
2022-12-11T02:59:19.685Z,-0.03
2022-12-11T03:02:21.810Z,-0.07
2022-12-11T03:05:24.729Z,-0.06
2022-12-11T03:08:26.997Z,-0.08
2022-12-11T03:11:29.486Z,-0.07
2022-12-11T03:14:31.415Z,-0.07
2022-12-11T03:18:08.759Z,-0.09
2022-12-11T03:21:20.859Z,-0.15
2022-12-11T03:24:26.208Z,-0.15
2022-12-11T03:27:39.814Z,-0.17
2022-12-11T03:30:43.636Z,-0.11
2022-12-11T03:33:48.113Z,-0.14
2022-12-11T03:36:50.481Z,-0.18
2022-12-11T03:39:59.231Z,-0.14
2022-12-11T03:43:01.578Z,-0.16
2022-12-11T03:46:03.590Z,-0.16
2022-12-11T03:49:21.380Z,-0.12
2022-12-11T03:52:23.718Z,-0.10
2022-12-11T03:55:26.955Z,-0.16
2022-12-11T03:58:29.093Z,-0.13
2022-12-11T04:01:31.191Z,-0.13
2022-12-11T04:04:33.083Z,-0.20
2022-12-11T04:07:35.930Z,-0.22
2022-12-11T04:10:37.730Z,-0.29
2022-12-11T04:13:40.881Z,-0.26
2022-12-11T04:16:42.739Z,-0.33
2022-12-11T04:20:03.341Z,-0.38
2022-12-11T04:23:34.075Z,-0.41
2022-12-11T04:26:35.868Z,-0.43
2022-12-11T04:29:37.795Z,-0.51
2022-12-11T04:32:39.806Z,-0.47
2022-12-11T04:35:41.597Z,-0.47
2022-12-11T04:38:43.605Z,-0.49
2022-12-11T04:41:45.435Z,-0.48
2022-12-11T04:44:47.267Z,-0.47
2022-12-11T04:47:49.447Z,-0.47
2022-12-11T04:50:51.447Z,-0.47
2022-12-11T04:53:53.609Z,-0.49
2022-12-11T04:56:55.647Z,-0.46
2022-12-11T04:59:57.967Z,-0.46
2022-12-11T05:03:00.023Z,-0.44
2022-12-11T05:06:02.339Z,-0.37
2022-12-11T05:09:04.177Z,-0.40
2022-12-11T05:12:06.453Z,-0.39
2022-12-11T05:15:09.152Z,-0.35
2022-12-11T05:18:11.989Z,-0.31
2022-12-11T05:21:14.950Z,-0.33
2022-12-11T05:24:16.845Z,-0.36
2022-12-11T05:27:19.053Z,-0.28
2022-12-11T05:30:21.157Z,-0.27
2022-12-11T05:33:22.978Z,-0.25
2022-12-11T05:36:30.418Z,-0.25
2022-12-11T05:39:32.669Z,-0.25
2022-12-11T05:42:35.219Z,-0.25
2022-12-11T05:45:37.126Z,-0.24
2022-12-11T05:48:40.271Z,-0.19
2022-12-11T05:51:43.454Z,-0.19
2022-12-11T05:54:45.422Z,-0.19
2022-12-11T05:57:47.460Z,-0.24
2022-12-11T06:00:49.617Z,-0.26
2022-12-11T06:03:52.170Z,-0.21
2022-12-11T06:06:55.176Z,-0.28
2022-12-11T06:09:57.190Z,-0.31
2022-12-11T06:13:01.924Z,-0.30
2022-12-11T06:16:06.601Z,-0.35
2022-12-11T06:19:17.657Z,-0.33
2022-12-11T06:22:23.229Z,-0.43
2022-12-11T06:25:25.501Z,-0.47
2022-12-11T06:28:27.306Z,-0.44
2022-12-11T06:31:29.453Z,-0.49
2022-12-11T06:34:31.386Z,-0.53
2022-12-11T06:37:35.924Z,-0.58
2022-12-11T06:40:38.614Z,-0.60
2022-12-11T06:43:43.108Z,-0.60
2022-12-11T06:46:45.864Z,-0.60
2022-12-11T06:49:48.403Z,-0.61
2022-12-11T06:52:50.894Z,-0.68
2022-12-11T06:55:56.271Z,-0.63
2022-12-11T06:59:02.854Z,-0.62
2022-12-11T07:02:08.069Z,-0.57
2022-12-11T07:05:10.649Z,-0.59
2022-12-11T07:08:13.018Z,-0.60
2022-12-11T07:11:17.067Z,-0.56
2022-12-11T07:14:20.597Z,-0.52
2022-12-11T07:17:23.202Z,-0.48
2022-12-11T07:20:25.838Z,-0.52
2022-12-11T07:23:29.016Z,-0.51
2022-12-11T07:26:31.405Z,-0.57
2022-12-11T07:29:33.624Z,-0.46
2022-12-11T07:32:36.248Z,-0.57
2022-12-11T07:35:38.372Z,-0.52
2022-12-11T07:38:41.244Z,-0.47
2022-12-11T07:41:43.484Z,-0.48
2022-12-11T07:44:46.654Z,-0.39
2022-12-11T07:47:48.949Z,-0.43
2022-12-11T07:50:51.671Z,-0.38
2022-12-11T07:53:56.807Z,-0.44
2022-12-11T07:56:58.723Z,-0.45
2022-12-11T08:00:00.916Z,-0.46
2022-12-11T08:03:03.189Z,-0.42
2022-12-11T08:06:05.737Z,-0.42
2022-12-11T08:09:10.050Z,-0.40
2022-12-11T08:12:13.918Z,-0.39
2022-12-11T08:15:16.538Z,-0.42
2022-12-11T08:18:18.466Z,-0.47
2022-12-11T08:21:21.532Z,-0.46
2022-12-11T08:24:23.626Z,-0.44
2022-12-11T08:27:26.998Z,-0.48
2022-12-11T08:30:30.687Z,-0.41
2022-12-11T08:33:32.654Z,-0.50
2022-12-11T08:36:34.823Z,-0.47
2022-12-11T08:39:37.271Z,-0.41
2022-12-11T08:42:39.350Z,-0.43
2022-12-11T08:45:42.175Z,-0.36
2022-12-11T08:48:45.658Z,-0.44
2022-12-11T08:51:47.883Z,-0.46
2022-12-11T08:54:50.074Z,-0.34
2022-12-11T08:57:51.848Z,-0.41
2022-12-11T09:00:53.968Z,-0.47
2022-12-11T09:03:56.949Z,-0.45
2022-12-11T09:06:59.217Z,-0.44
2022-12-11T09:10:01.369Z,-0.41
2022-12-11T09:13:03.282Z,-0.45
2022-12-11T09:16:07.306Z,-0.45
2022-12-11T09:19:15.074Z,-0.48
2022-12-11T09:22:17.377Z,-0.46
2022-12-11T09:25:19.332Z,-0.47
2022-12-11T09:28:22.764Z,-0.44
2022-12-11T09:31:30.649Z,-0.40
2022-12-11T09:34:42.724Z,-0.35
2022-12-11T09:37:44.858Z,-0.45
2022-12-11T09:40:46.993Z,-0.43
2022-12-11T09:44:21.236Z,-0.46
2022-12-11T09:47:37.201Z,-0.50
2022-12-11T09:50:40.508Z,-0.49
2022-12-11T09:53:43.012Z,-0.47
2022-12-11T09:57:12.073Z,-0.38
2022-12-11T10:00:27.115Z,-0.39
2022-12-11T10:03:38.309Z,-0.35
2022-12-11T10:07:03.951Z,-0.39
2022-12-11T10:10:25.260Z,-0.45
2022-12-11T10:13:56.679Z,-0.35
2022-12-11T10:17:19.973Z,-0.38
2022-12-11T10:20:27.152Z,-0.43
2022-12-11T10:23:40.933Z,-0.34
2022-12-11T10:26:43.943Z,-0.34
2022-12-11T10:29:47.658Z,-0.26
2022-12-11T10:32:53.536Z,-0.22
2022-12-11T10:35:58.600Z,-0.26
2022-12-11T10:39:01.453Z,-0.24
2022-12-11T10:42:17.999Z,-0.20
2022-12-11T10:45:20.086Z,-0.31
2022-12-11T10:48:23.463Z,-0.33
2022-12-11T10:51:37.046Z,-0.30
2022-12-11T10:54:44.317Z,-0.29
2022-12-11T10:58:04.322Z,-0.22
2022-12-11T11:01:08.865Z,-0.18
2022-12-11T11:04:26.190Z,-0.16
2022-12-11T11:07:31.353Z,-0.13
2022-12-11T11:10:37.130Z,-0.07
2022-12-11T11:13:40.633Z,-0.24
2022-12-11T11:16:47.812Z,-0.20
2022-12-11T11:19:50.438Z,-0.30
2022-12-11T11:22:58.907Z,-0.34
2022-12-11T11:26:02.585Z,-0.46
2022-12-11T11:29:05.052Z,-0.36
2022-12-11T11:32:39.823Z,-0.51
2022-12-11T11:35:57.074Z,-0.68
2022-12-11T11:39:05.240Z,-0.64
2022-12-11T11:42:19.770Z,-0.71
2022-12-11T11:45:27.142Z,-0.74
2022-12-11T11:48:32.316Z,-0.61
2022-12-11T11:51:38.257Z,-0.62
2022-12-11T11:54:43.766Z,-0.62
2022-12-11T11:58:26.054Z,-0.63
2022-12-11T12:01:28.571Z,-0.67
2022-12-11T12:04:34.618Z,-0.68
2022-12-11T12:08:08.683Z,-0.69
2022-12-11T12:11:29.552Z,-0.78
2022-12-11T12:14:54.972Z,-0.84
2022-12-11T12:18:02.955Z,-0.75
2022-12-11T12:21:14.799Z,-0.73
2022-12-11T12:25:01.573Z,-0.67
2022-12-11T12:28:12.773Z,-0.67
2022-12-11T12:31:47.244Z,-0.34
2022-12-11T12:34:58.967Z,-0.61
2022-12-11T12:38:12.307Z,-0.67
2022-12-11T12:41:23.269Z,-0.64
2022-12-11T12:44:29.536Z,-0.59
2022-12-11T12:47:34.428Z,-0.67
2022-12-11T12:50:45.802Z,-0.78
2022-12-11T12:53:57.925Z,-0.84
2022-12-11T12:57:02.313Z,-0.92
2022-12-11T13:00:13.076Z,-0.81
2022-12-11T13:03:20.510Z,-0.86
2022-12-11T13:06:36.496Z,-0.89
2022-12-11T13:09:40.172Z,-0.89
2022-12-11T13:12:47.321Z,-0.93
2022-12-11T13:15:50.009Z,-1.01
2022-12-11T13:18:53.192Z,-1.00
2022-12-11T13:22:04.587Z,-1.01
2022-12-11T13:25:22.972Z,-0.98
2022-12-11T13:28:47.112Z,-1.03
2022-12-11T13:31:57.848Z,-0.99
2022-12-11T13:35:05.257Z,-1.06
2022-12-11T13:38:15.620Z,-1.08
2022-12-11T13:41:19.143Z,-1.21
2022-12-11T13:44:27.494Z,-1.23
2022-12-11T13:47:31.151Z,-1.32
2022-12-11T13:50:35.169Z,-1.45
2022-12-11T13:53:39.705Z,-1.44
2022-12-11T13:57:13.327Z,-1.52
2022-12-11T14:00:33.163Z,-1.48
2022-12-11T14:03:36.018Z,-1.65
2022-12-11T14:06:39.227Z,-1.63
2022-12-11T14:09:45.869Z,-1.66
2022-12-11T14:12:59.449Z,-1.66
2022-12-11T14:16:04.044Z,-1.69
2022-12-11T14:19:08.348Z,-1.75
2022-12-11T14:22:19.634Z,-1.69
2022-12-11T14:25:25.615Z,-1.73
2022-12-11T14:28:30.990Z,-1.76
2022-12-11T14:31:38.519Z,-1.84
2022-12-11T14:34:46.723Z,-1.89
2022-12-11T14:37:49.325Z,-1.79
2022-12-11T14:40:55.673Z,-1.84
2022-12-11T14:43:59.871Z,-1.87
2022-12-11T14:47:11.049Z,-1.94
2022-12-11T14:50:37.344Z,-1.94
2022-12-11T14:53:45.513Z,-1.90
2022-12-11T14:56:47.921Z,-1.91
2022-12-11T14:59:52.000Z,-1.85
2022-12-11T15:03:02.375Z,-1.87
2022-12-11T15:06:26.011Z,-1.86
2022-12-11T15:09:34.221Z,-1.83
2022-12-11T15:12:44.727Z,-1.82
2022-12-11T15:15:48.223Z,-1.82
2022-12-11T15:18:52.169Z,-1.87
2022-12-11T15:21:55.795Z,-1.87
2022-12-11T15:24:58.986Z,-1.80
2022-12-11T15:28:01.811Z,-1.82
2022-12-11T15:31:31.290Z,-1.77
2022-12-11T15:34:54.747Z,-1.76
2022-12-11T15:37:59.485Z,-1.76
2022-12-11T15:41:02.235Z,-1.77
2022-12-11T15:44:05.105Z,-1.74
2022-12-11T15:47:16.235Z,-1.85
2022-12-11T15:50:18.590Z,-1.82
2022-12-11T15:53:20.531Z,-1.82
2022-12-11T15:56:22.858Z,-1.81
2022-12-11T15:59:24.817Z,-1.85
2022-12-11T16:02:28.509Z,-1.90
2022-12-11T16:05:31.529Z,-1.90
2022-12-11T16:08:34.147Z,-1.90
2022-12-11T16:11:36.144Z,-1.94
2022-12-11T16:14:39.427Z,-1.98
2022-12-11T16:17:42.120Z,-1.99
2022-12-11T16:20:45.838Z,-2.04
2022-12-11T16:23:48.380Z,-2.00
2022-12-11T16:26:50.605Z,-2.03
2022-12-11T16:29:52.651Z,-1.99
2022-12-11T16:32:55.664Z,-2.10
2022-12-11T16:35:58.224Z,-2.09
2022-12-11T16:39:00.782Z,-2.05
2022-12-11T16:42:04.371Z,-2.05
2022-12-11T16:45:10.659Z,-2.03
2022-12-11T16:48:13.339Z,-2.07
2022-12-11T16:51:15.996Z,-2.00
2022-12-11T16:54:18.739Z,-2.04
2022-12-11T16:57:20.906Z,-2.07
2022-12-11T17:00:24.220Z,-2.06
2022-12-11T17:03:27.816Z,-2.01
2022-12-11T17:06:30.543Z,-2.02
2022-12-11T17:09:33.315Z,-2.02
2022-12-11T17:12:35.580Z,-2.05
2022-12-11T17:15:44.536Z,-2.02
2022-12-11T17:18:47.417Z,-2.10
2022-12-11T17:21:51.821Z,-2.04
2022-12-11T17:24:54.642Z,-2.05
2022-12-11T17:27:56.841Z,-2.04
2022-12-11T17:30:59.348Z,-1.94
2022-12-11T17:34:01.619Z,-1.99
2022-12-11T17:37:03.641Z,-2.00
2022-12-11T17:40:06.944Z,-1.98
2022-12-11T17:43:10.524Z,-1.97
2022-12-11T17:46:13.559Z,-2.00
2022-12-11T17:49:15.930Z,-1.99
2022-12-11T17:52:19.230Z,-2.02
2022-12-11T17:55:21.497Z,-1.97
2022-12-11T17:58:23.775Z,-1.84
2022-12-11T18:01:26.742Z,-1.85
2022-12-11T18:04:29.166Z,-1.92
2022-12-11T18:07:31.922Z,-1.91
2022-12-11T18:10:36.760Z,-1.91
2022-12-11T18:13:40.103Z,-1.97
2022-12-11T18:16:42.517Z,-2.00
2022-12-11T18:19:46.296Z,-1.97
2022-12-11T18:22:48.944Z,-1.98
2022-12-11T18:25:51.232Z,-1.99
2022-12-11T18:28:54.302Z,-2.09
2022-12-11T18:31:57.152Z,-2.06
2022-12-11T18:35:00.226Z,-2.04
2022-12-11T18:38:02.544Z,-2.16
2022-12-11T18:41:06.607Z,-2.15
2022-12-11T18:44:10.083Z,-2.10
2022-12-11T18:47:12.585Z,-2.19
2022-12-11T18:50:15.665Z,-2.10
2022-12-11T18:53:19.511Z,-2.15
2022-12-11T18:56:22.578Z,-2.20
2022-12-11T18:59:26.191Z,-2.12
2022-12-11T19:02:29.008Z,-2.10
2022-12-11T19:05:31.989Z,-2.06
2022-12-11T19:08:38.542Z,-2.13
2022-12-11T19:11:42.838Z,-2.13
2022-12-11T19:14:46.468Z,-2.09
2022-12-11T19:17:48.949Z,-2.14
2022-12-11T19:21:03.073Z,-2.14
2022-12-11T19:24:10.071Z,-2.10
2022-12-11T19:27:18.618Z,-2.14
2022-12-11T19:30:21.395Z,-2.08
2022-12-11T19:33:25.703Z,-2.10
2022-12-11T19:36:30.684Z,-2.07
2022-12-11T19:39:34.056Z,-2.08
2022-12-11T19:42:36.497Z,-2.23
2022-12-11T19:45:39.401Z,-2.33
2022-12-11T19:48:43.076Z,-2.31
2022-12-11T19:51:46.104Z,-2.31
2022-12-11T19:54:48.689Z,-2.41
2022-12-11T19:57:51.520Z,-2.53
2022-12-11T20:00:54.872Z,-2.41
2022-12-11T20:04:00.132Z,-2.46
2022-12-11T20:07:02.884Z,-2.49
2022-12-11T20:10:05.635Z,-2.54
2022-12-11T20:13:08.312Z,-2.60
2022-12-11T20:16:12.339Z,-2.62
2022-12-11T20:19:15.142Z,-2.64
2022-12-11T20:22:17.241Z,-2.69
2022-12-11T20:25:19.647Z,-2.75
2022-12-11T20:28:22.681Z,-2.85
2022-12-11T20:31:26.423Z,-2.86
2022-12-11T20:34:29.437Z,-2.99
2022-12-11T20:37:32.353Z,-2.95
2022-12-11T20:40:34.890Z,-3.08
2022-12-11T20:43:38.265Z,-3.13
2022-12-11T20:46:40.581Z,-3.03
2022-12-11T20:49:44.053Z,-3.04
2022-12-11T20:52:46.828Z,-3.16
2022-12-11T20:55:49.690Z,-3.16
2022-12-11T20:58:52.027Z,-3.13
2022-12-11T21:01:54.732Z,-3.22
2022-12-11T21:04:57.765Z,-3.21
2022-12-11T21:08:00.194Z,-3.20
2022-12-11T21:11:03.123Z,-3.15
2022-12-11T21:14:05.539Z,-3.14
2022-12-11T21:17:08.371Z,-3.15
2022-12-11T21:20:10.885Z,-3.14
2022-12-11T21:23:12.853Z,-3.13
2022-12-11T21:26:15.239Z,-3.09
2022-12-11T21:29:17.481Z,-3.11
2022-12-11T21:32:20.319Z,-3.09
2022-12-11T21:35:22.509Z,-3.08
2022-12-11T21:38:24.997Z,-3.01
2022-12-11T21:41:27.963Z,-3.06
2022-12-11T23:40:08.964Z,-3.22
2022-12-11T23:43:10.803Z,-3.45
2022-12-11T23:46:18.826Z,-3.25
2022-12-11T23:49:23.486Z,-3.41
2022-12-11T23:52:26.805Z,-3.56
2022-12-11T23:55:29.070Z,-3.54
2022-12-11T23:58:32.230Z,-3.51
